sensor_id;sensor_type;location;lat;lon;timestamp;P1;durP1;ratioP1;P2;durP2;ratioP2
20814;SDS011;10568;48.176;16.316;2022-11-20T00:01:17;16.13;;;7.63;;
20814;SDS011;10568;48.176;16.316;2022-11-20T00:03:45;19.00;;;7.83;;
20814;SDS011;10568;48.176;16.316;2022-11-20T00:06:12;16.67;;;8.80;;
20814;SDS011;10568;48.176;16.316;2022-11-20T00:08:42;17.87;;;8.30;;
20814;SDS011;10568;48.176;16.316;2022-11-20T00:11:12;17.03;;;7.00;;
20814;SDS011;10568;48.176;16.316;2022-11-20T00:13:39;17.03;;;7.87;;
20814;SDS011;10568;48.176;16.316;2022-11-20T00:16:06;18.73;;;9.17;;
20814;SDS011;10568;48.176;16.316;2022-11-20T00:18:33;17.53;;;8.90;;
20814;SDS011;10568;48.176;16.316;2022-11-20T00:21:13;18.77;;;8.57;;
20814;SDS011;10568;48.176;16.316;2022-11-20T00:23:41;18.23;;;9.30;;
20814;SDS011;10568;48.176;16.316;2022-11-20T00:26:08;20.07;;;8.57;;
20814;SDS011;10568;48.176;16.316;2022-11-20T00:28:35;16.03;;;8.20;;
20814;SDS011;10568;48.176;16.316;2022-11-20T00:31:05;19.00;;;9.10;;
20814;SDS011;10568;48.176;16.316;2022-11-20T00:33:38;18.30;;;7.63;;
20814;SDS011;10568;48.176;16.316;2022-11-20T00:36:06;16.57;;;8.90;;
20814;SDS011;10568;48.176;16.316;2022-11-20T00:38:33;18.50;;;8.70;;
20814;SDS011;10568;48.176;16.316;2022-11-20T00:41:00;16.20;;;8.63;;
20814;SDS011;10568;48.176;16.316;2022-11-20T00:43:27;18.27;;;8.40;;
20814;SDS011;10568;48.176;16.316;2022-11-20T00:46:00;16.50;;;7.50;;
20814;SDS011;10568;48.176;16.316;2022-11-20T00:48:27;19.70;;;8.33;;
20814;SDS011;10568;48.176;16.316;2022-11-20T00:50:53;18.97;;;8.57;;
20814;SDS011;10568;48.176;16.316;2022-11-20T00:53:19;15.73;;;7.37;;
20814;SDS011;10568;48.176;16.316;2022-11-20T00:55:55;20.27;;;9.40;;
20814;SDS011;10568;48.176;16.316;2022-11-20T00:58:23;15.17;;;7.70;;
20814;SDS011;10568;48.176;16.316;2022-11-20T01:00:49;20.47;;;8.37;;
20814;SDS011;10568;48.176;16.316;2022-11-20T01:03:16;20.10;;;8.37;;
20814;SDS011;10568;48.176;16.316;2022-11-20T01:05:43;17.77;;;8.90;;
20814;SDS011;10568;48.176;16.316;2022-11-20T01:08:09;18.33;;;8.27;;
20814;SDS011;10568;48.176;16.316;2022-11-20T01:10:34;16.77;;;8.23;;
20814;SDS011;10568;48.176;16.316;2022-11-20T01:13:00;18.80;;;8.70;;
20814;SDS011;10568;48.176;16.316;2022-11-20T01:15:44;14.70;;;7.23;;
20814;SDS011;10568;48.176;16.316;2022-11-20T01:18:10;18.07;;;8.43;;
20814;SDS011;10568;48.176;16.316;2022-11-20T01:20:36;16.47;;;8.37;;
20814;SDS011;10568;48.176;16.316;2022-11-20T01:23:02;21.97;;;8.97;;
20814;SDS011;10568;48.176;16.316;2022-11-20T01:25:28;16.47;;;8.07;;
20814;SDS011;10568;48.176;16.316;2022-11-20T01:27:54;19.57;;;8.77;;
20814;SDS011;10568;48.176;16.316;2022-11-20T01:30:20;16.70;;;8.23;;
20814;SDS011;10568;48.176;16.316;2022-11-20T01:32:46;15.00;;;7.13;;
20814;SDS011;10568;48.176;16.316;2022-11-20T01:35:11;18.70;;;8.07;;
20814;SDS011;10568;48.176;16.316;2022-11-20T01:37:37;17.23;;;8.17;;
20814;SDS011;10568;48.176;16.316;2022-11-20T01:40:03;21.33;;;8.70;;
20814;SDS011;10568;48.176;16.316;2022-11-20T01:42:30;15.93;;;8.30;;
20814;SDS011;10568;48.176;16.316;2022-11-20T01:48:12;20.00;;;8.83;;
20814;SDS011;10568;48.176;16.316;2022-11-20T01:50:38;16.13;;;8.10;;
20814;SDS011;10568;48.176;16.316;2022-11-20T01:53:07;17.03;;;8.43;;
20814;SDS011;10568;48.176;16.316;2022-11-20T01:55:43;14.73;;;7.87;;
20814;SDS011;10568;48.176;16.316;2022-11-20T01:58:13;21.90;;;9.37;;
20814;SDS011;10568;48.176;16.316;2022-11-20T02:00:40;16.07;;;8.13;;
20814;SDS011;10568;48.176;16.316;2022-11-20T02:03:09;17.57;;;8.43;;
20814;SDS011;10568;48.176;16.316;2022-11-20T02:08:04;18.40;;;8.37;;
20814;SDS011;10568;48.176;16.316;2022-11-20T02:10:31;16.77;;;8.57;;
20814;SDS011;10568;48.176;16.316;2022-11-20T02:12:57;16.93;;;8.27;;
20814;SDS011;10568;48.176;16.316;2022-11-20T02:15:42;17.00;;;8.33;;
20814;SDS011;10568;48.176;16.316;2022-11-20T02:18:09;15.83;;;8.47;;
20814;SDS011;10568;48.176;16.316;2022-11-20T02:20:36;17.47;;;8.10;;
20814;SDS011;10568;48.176;16.316;2022-11-20T02:25:31;16.47;;;8.33;;
20814;SDS011;10568;48.176;16.316;2022-11-20T02:27:58;16.20;;;8.07;;
20814;SDS011;10568;48.176;16.316;2022-11-20T02:30:24;19.33;;;8.80;;
20814;SDS011;10568;48.176;16.316;2022-11-20T02:32:50;16.07;;;8.33;;
20814;SDS011;10568;48.176;16.316;2022-11-20T02:37:45;16.60;;;8.07;;
20814;SDS011;10568;48.176;16.316;2022-11-20T02:40:13;16.13;;;7.70;;
20814;SDS011;10568;48.176;16.316;2022-11-20T02:42:39;17.03;;;8.17;;
20814;SDS011;10568;48.176;16.316;2022-11-20T02:45:05;17.90;;;8.47;;
20814;SDS011;10568;48.176;16.316;2022-11-20T02:47:31;19.33;;;8.83;;
20814;SDS011;10568;48.176;16.316;2022-11-20T02:49:57;16.40;;;7.93;;
20814;SDS011;10568;48.176;16.316;2022-11-20T02:52:24;12.60;;;6.70;;
20814;SDS011;10568;48.176;16.316;2022-11-20T02:54:50;15.87;;;8.23;;
20814;SDS011;10568;48.176;16.316;2022-11-20T02:57:15;18.20;;;8.30;;
20814;SDS011;10568;48.176;16.316;2022-11-20T02:59:41;16.37;;;9.10;;
20814;SDS011;10568;48.176;16.316;2022-11-20T03:02:07;18.50;;;8.23;;
20814;SDS011;10568;48.176;16.316;2022-11-20T03:04:33;17.73;;;8.50;;
20814;SDS011;10568;48.176;16.316;2022-11-20T03:06:58;16.30;;;7.97;;
20814;SDS011;10568;48.176;16.316;2022-11-20T03:09:24;16.83;;;8.33;;
20814;SDS011;10568;48.176;16.316;2022-11-20T03:11:50;16.07;;;8.40;;
20814;SDS011;10568;48.176;16.316;2022-11-20T03:14:16;14.00;;;7.93;;
20814;SDS011;10568;48.176;16.316;2022-11-20T03:16:42;17.67;;;8.27;;
20814;SDS011;10568;48.176;16.316;2022-11-20T03:19:07;15.17;;;7.10;;
20814;SDS011;10568;48.176;16.316;2022-11-20T03:21:33;19.67;;;7.87;;
20814;SDS011;10568;48.176;16.316;2022-11-20T03:23:59;15.53;;;8.20;;
20814;SDS011;10568;48.176;16.316;2022-11-20T03:26:25;17.63;;;8.13;;
20814;SDS011;10568;48.176;16.316;2022-11-20T03:28:56;20.20;;;9.00;;
20814;SDS011;10568;48.176;16.316;2022-11-20T03:31:28;13.80;;;7.30;;
20814;SDS011;10568;48.176;16.316;2022-11-20T03:34:07;17.53;;;8.87;;
20814;SDS011;10568;48.176;16.316;2022-11-20T03:36:34;19.87;;;8.37;;
20814;SDS011;10568;48.176;16.316;2022-11-20T03:39:04;16.43;;;8.50;;
20814;SDS011;10568;48.176;16.316;2022-11-20T03:41:30;18.90;;;8.73;;
20814;SDS011;10568;48.176;16.316;2022-11-20T03:44:01;18.63;;;8.13;;
20814;SDS011;10568;48.176;16.316;2022-11-20T03:46:29;19.30;;;9.00;;
20814;SDS011;10568;48.176;16.316;2022-11-20T03:48:55;20.43;;;8.60;;
20814;SDS011;10568;48.176;16.316;2022-11-20T03:53:48;16.13;;;8.17;;
20814;SDS011;10568;48.176;16.316;2022-11-20T03:56:16;16.77;;;8.13;;
20814;SDS011;10568;48.176;16.316;2022-11-20T03:58:43;20.40;;;9.07;;
20814;SDS011;10568;48.176;16.316;2022-11-20T04:01:13;14.33;;;7.47;;
20814;SDS011;10568;48.176;16.316;2022-11-20T04:03:41;18.23;;;8.50;;
20814;SDS011;10568;48.176;16.316;2022-11-20T04:06:09;20.60;;;8.57;;
20814;SDS011;10568;48.176;16.316;2022-11-20T04:08:39;15.40;;;7.97;;
20814;SDS011;10568;48.176;16.316;2022-11-20T04:13:38;18.17;;;8.40;;
20814;SDS011;10568;48.176;16.316;2022-11-20T04:16:04;16.63;;;8.27;;
20814;SDS011;10568;48.176;16.316;2022-11-20T04:18:31;19.87;;;8.57;;
20814;SDS011;10568;48.176;16.316;2022-11-20T04:20:57;18.70;;;8.57;;
20814;SDS011;10568;48.176;16.316;2022-11-20T04:23:24;14.20;;;8.07;;
20814;SDS011;10568;48.176;16.316;2022-11-20T04:25:51;18.03;;;8.07;;
20814;SDS011;10568;48.176;16.316;2022-11-20T04:28:17;16.20;;;8.07;;
20814;SDS011;10568;48.176;16.316;2022-11-20T04:30:43;16.47;;;7.90;;
20814;SDS011;10568;48.176;16.316;2022-11-20T04:33:09;17.63;;;7.97;;
20814;SDS011;10568;48.176;16.316;2022-11-20T04:35:35;17.37;;;8.23;;
20814;SDS011;10568;48.176;16.316;2022-11-20T04:38:01;15.87;;;8.33;;
20814;SDS011;10568;48.176;16.316;2022-11-20T04:40:27;17.93;;;8.30;;
20814;SDS011;10568;48.176;16.316;2022-11-20T04:42:53;18.03;;;8.37;;
20814;SDS011;10568;48.176;16.316;2022-11-20T04:45:20;16.50;;;8.03;;
20814;SDS011;10568;48.176;16.316;2022-11-20T04:47:46;16.90;;;7.97;;
20814;SDS011;10568;48.176;16.316;2022-11-20T04:50:12;17.47;;;8.07;;
20814;SDS011;10568;48.176;16.316;2022-11-20T04:52:38;15.97;;;7.73;;
20814;SDS011;10568;48.176;16.316;2022-11-20T04:55:04;17.43;;;8.43;;
20814;SDS011;10568;48.176;16.316;2022-11-20T04:57:30;18.27;;;8.03;;
20814;SDS011;10568;48.176;16.316;2022-11-20T04:59:56;16.80;;;7.40;;
20814;SDS011;10568;48.176;16.316;2022-11-20T05:02:21;21.30;;;9.13;;
20814;SDS011;10568;48.176;16.316;2022-11-20T05:04:47;14.17;;;6.77;;
20814;SDS011;10568;48.176;16.316;2022-11-20T05:07:13;14.90;;;7.17;;
20814;SDS011;10568;48.176;16.316;2022-11-20T05:09:39;17.47;;;8.73;;
20814;SDS011;10568;48.176;16.316;2022-11-20T05:12:06;17.20;;;8.63;;
20814;SDS011;10568;48.176;16.316;2022-11-20T05:14:33;15.47;;;8.67;;
20814;SDS011;10568;48.176;16.316;2022-11-20T05:16:58;20.10;;;8.13;;
20814;SDS011;10568;48.176;16.316;2022-11-20T05:19:24;18.20;;;8.20;;
20814;SDS011;10568;48.176;16.316;2022-11-20T05:21:50;16.70;;;8.30;;
20814;SDS011;10568;48.176;16.316;2022-11-20T05:24:16;16.10;;;8.17;;
20814;SDS011;10568;48.176;16.316;2022-11-20T05:26:42;16.03;;;7.67;;
20814;SDS011;10568;48.176;16.316;2022-11-20T05:29:09;21.70;;;8.17;;
20814;SDS011;10568;48.176;16.316;2022-11-20T05:31:36;17.57;;;8.60;;
20814;SDS011;10568;48.176;16.316;2022-11-20T05:34:04;15.23;;;7.67;;
20814;SDS011;10568;48.176;16.316;2022-11-20T05:36:30;18.27;;;8.43;;
20814;SDS011;10568;48.176;16.316;2022-11-20T05:38:56;15.93;;;8.40;;
20814;SDS011;10568;48.176;16.316;2022-11-20T05:41:22;16.30;;;8.47;;
20814;SDS011;10568;48.176;16.316;2022-11-20T05:43:48;17.30;;;8.80;;
20814;SDS011;10568;48.176;16.316;2022-11-20T05:46:15;16.87;;;8.53;;
20814;SDS011;10568;48.176;16.316;2022-11-20T05:48:43;19.10;;;8.77;;
20814;SDS011;10568;48.176;16.316;2022-11-20T05:51:11;17.03;;;8.17;;
20814;SDS011;10568;48.176;16.316;2022-11-20T05:53:38;16.03;;;8.17;;
20814;SDS011;10568;48.176;16.316;2022-11-20T05:56:06;19.17;;;8.47;;
20814;SDS011;10568;48.176;16.316;2022-11-20T05:58:37;14.23;;;8.30;;
20814;SDS011;10568;48.176;16.316;2022-11-20T06:01:09;18.03;;;8.50;;
20814;SDS011;10568;48.176;16.316;2022-11-20T06:03:37;16.10;;;8.60;;
20814;SDS011;10568;48.176;16.316;2022-11-20T06:06:04;18.03;;;9.43;;
20814;SDS011;10568;48.176;16.316;2022-11-20T06:08:31;17.57;;;8.20;;
20814;SDS011;10568;48.176;16.316;2022-11-20T06:10:57;15.53;;;8.40;;
20814;SDS011;10568;48.176;16.316;2022-11-20T06:13:23;22.63;;;8.30;;
20814;SDS011;10568;48.176;16.316;2022-11-20T06:15:50;18.50;;;8.57;;
20814;SDS011;10568;48.176;16.316;2022-11-20T06:18:16;18.37;;;8.57;;
20814;SDS011;10568;48.176;16.316;2022-11-20T06:20:42;15.27;;;8.33;;
20814;SDS011;10568;48.176;16.316;2022-11-20T06:26:13;15.80;;;8.50;;
20814;SDS011;10568;48.176;16.316;2022-11-20T06:28:40;14.77;;;8.33;;
20814;SDS011;10568;48.176;16.316;2022-11-20T06:31:07;16.93;;;8.60;;
20814;SDS011;10568;48.176;16.316;2022-11-20T06:33:34;15.33;;;8.17;;
20814;SDS011;10568;48.176;16.316;2022-11-20T06:36:01;19.27;;;8.57;;
20814;SDS011;10568;48.176;16.316;2022-11-20T06:38:27;20.97;;;8.87;;
20814;SDS011;10568;48.176;16.316;2022-11-20T06:40:53;17.70;;;8.53;;
20814;SDS011;10568;48.176;16.316;2022-11-20T06:43:20;20.40;;;9.60;;
20814;SDS011;10568;48.176;16.316;2022-11-20T06:45:46;19.10;;;8.87;;
20814;SDS011;10568;48.176;16.316;2022-11-20T06:48:11;17.43;;;8.17;;
20814;SDS011;10568;48.176;16.316;2022-11-20T06:50:37;17.60;;;8.90;;
20814;SDS011;10568;48.176;16.316;2022-11-20T06:53:03;15.60;;;8.07;;
20814;SDS011;10568;48.176;16.316;2022-11-20T06:55:30;14.93;;;8.03;;
20814;SDS011;10568;48.176;16.316;2022-11-20T06:57:56;18.00;;;8.00;;
20814;SDS011;10568;48.176;16.316;2022-11-20T07:00:22;16.10;;;7.70;;
20814;SDS011;10568;48.176;16.316;2022-11-20T07:06:11;17.87;;;8.30;;
20814;SDS011;10568;48.176;16.316;2022-11-20T07:08:36;18.63;;;9.07;;
20814;SDS011;10568;48.176;16.316;2022-11-20T07:11:03;15.17;;;8.57;;
20814;SDS011;10568;48.176;16.316;2022-11-20T07:13:30;21.57;;;8.70;;
20814;SDS011;10568;48.176;16.316;2022-11-20T07:16:00;17.10;;;8.77;;
20814;SDS011;10568;48.176;16.316;2022-11-20T07:18:27;16.07;;;8.73;;
20814;SDS011;10568;48.176;16.316;2022-11-20T07:20:53;16.60;;;8.13;;
20814;SDS011;10568;48.176;16.316;2022-11-20T07:23:18;19.17;;;8.57;;
20814;SDS011;10568;48.176;16.316;2022-11-20T07:25:44;15.80;;;8.37;;
20814;SDS011;10568;48.176;16.316;2022-11-20T07:28:10;19.57;;;9.53;;
20814;SDS011;10568;48.176;16.316;2022-11-20T07:30:35;19.87;;;10.33;;
20814;SDS011;10568;48.176;16.316;2022-11-20T07:33:01;17.80;;;8.83;;
20814;SDS011;10568;48.176;16.316;2022-11-20T07:35:27;16.13;;;8.50;;
20814;SDS011;10568;48.176;16.316;2022-11-20T07:37:53;16.53;;;8.13;;
20814;SDS011;10568;48.176;16.316;2022-11-20T07:40:19;16.47;;;9.20;;
20814;SDS011;10568;48.176;16.316;2022-11-20T07:42:48;16.20;;;7.60;;
20814;SDS011;10568;48.176;16.316;2022-11-20T07:45:16;15.60;;;8.03;;
20814;SDS011;10568;48.176;16.316;2022-11-20T07:47:46;20.87;;;8.57;;
20814;SDS011;10568;48.176;16.316;2022-11-20T07:50:12;14.83;;;8.30;;
20814;SDS011;10568;48.176;16.316;2022-11-20T07:52:38;18.27;;;9.03;;
20814;SDS011;10568;48.176;16.316;2022-11-20T07:55:05;15.80;;;8.30;;
20814;SDS011;10568;48.176;16.316;2022-11-20T07:57:32;19.93;;;9.23;;
20814;SDS011;10568;48.176;16.316;2022-11-20T07:59:57;20.43;;;9.67;;
20814;SDS011;10568;48.176;16.316;2022-11-20T08:02:23;20.80;;;9.00;;
20814;SDS011;10568;48.176;16.316;2022-11-20T08:04:49;18.23;;;9.30;;
20814;SDS011;10568;48.176;16.316;2022-11-20T08:07:16;19.57;;;9.27;;
20814;SDS011;10568;48.176;16.316;2022-11-20T08:09:42;20.23;;;8.70;;
20814;SDS011;10568;48.176;16.316;2022-11-20T08:12:08;17.67;;;9.10;;
20814;SDS011;10568;48.176;16.316;2022-11-20T08:15:00;18.20;;;8.30;;
20814;SDS011;10568;48.176;16.316;2022-11-20T08:17:26;15.53;;;8.00;;
20814;SDS011;10568;48.176;16.316;2022-11-20T08:19:51;19.83;;;9.83;;
20814;SDS011;10568;48.176;16.316;2022-11-20T08:22:17;18.13;;;9.27;;
20814;SDS011;10568;48.176;16.316;2022-11-20T08:24:43;16.93;;;8.70;;
20814;SDS011;10568;48.176;16.316;2022-11-20T08:27:08;19.10;;;10.70;;
20814;SDS011;10568;48.176;16.316;2022-11-20T08:29:34;19.93;;;9.37;;
20814;SDS011;10568;48.176;16.316;2022-11-20T08:32:00;20.53;;;8.97;;
20814;SDS011;10568;48.176;16.316;2022-11-20T08:34:26;16.47;;;9.30;;
20814;SDS011;10568;48.176;16.316;2022-11-20T08:36:51;21.90;;;9.63;;
20814;SDS011;10568;48.176;16.316;2022-11-20T08:39:17;21.07;;;9.23;;
20814;SDS011;10568;48.176;16.316;2022-11-20T08:41:43;21.93;;;10.23;;
20814;SDS011;10568;48.176;16.316;2022-11-20T08:44:08;20.63;;;9.53;;
20814;SDS011;10568;48.176;16.316;2022-11-20T08:46:35;20.00;;;9.30;;
20814;SDS011;10568;48.176;16.316;2022-11-20T08:49:06;18.13;;;9.23;;
20814;SDS011;10568;48.176;16.316;2022-11-20T08:51:35;16.73;;;9.20;;
20814;SDS011;10568;48.176;16.316;2022-11-20T08:54:01;19.53;;;9.47;;
20814;SDS011;10568;48.176;16.316;2022-11-20T08:56:27;20.87;;;9.50;;
20814;SDS011;10568;48.176;16.316;2022-11-20T08:58:53;19.83;;;9.70;;
20814;SDS011;10568;48.176;16.316;2022-11-20T09:01:19;17.77;;;8.63;;
20814;SDS011;10568;48.176;16.316;2022-11-20T09:03:46;19.10;;;8.97;;
20814;SDS011;10568;48.176;16.316;2022-11-20T09:06:12;16.03;;;9.00;;
20814;SDS011;10568;48.176;16.316;2022-11-20T09:08:39;19.03;;;9.27;;
20814;SDS011;10568;48.176;16.316;2022-11-20T09:11:04;19.33;;;9.27;;
20814;SDS011;10568;48.176;16.316;2022-11-20T09:13:31;19.80;;;9.87;;
20814;SDS011;10568;48.176;16.316;2022-11-20T09:16:01;19.57;;;9.60;;
20814;SDS011;10568;48.176;16.316;2022-11-20T09:18:29;17.03;;;9.13;;
20814;SDS011;10568;48.176;16.316;2022-11-20T09:21:01;20.07;;;10.60;;
20814;SDS011;10568;48.176;16.316;2022-11-20T09:23:30;22.03;;;10.43;;
20814;SDS011;10568;48.176;16.316;2022-11-20T09:25:57;19.63;;;10.27;;
20814;SDS011;10568;48.176;16.316;2022-11-20T09:28:27;18.67;;;9.20;;
20814;SDS011;10568;48.176;16.316;2022-11-20T09:30:53;21.87;;;10.50;;
20814;SDS011;10568;48.176;16.316;2022-11-20T09:33:18;21.07;;;10.57;;
20814;SDS011;10568;48.176;16.316;2022-11-20T09:35:44;21.67;;;9.67;;
20814;SDS011;10568;48.176;16.316;2022-11-20T09:38:10;22.50;;;10.10;;
20814;SDS011;10568;48.176;16.316;2022-11-20T09:40:38;19.87;;;10.73;;
20814;SDS011;10568;48.176;16.316;2022-11-20T09:44:12;21.73;;;9.63;;
20814;SDS011;10568;48.176;16.316;2022-11-20T09:52:19;21.80;;;11.10;;
20814;SDS011;10568;48.176;16.316;2022-11-20T09:54:45;21.17;;;10.07;;
20814;SDS011;10568;48.176;16.316;2022-11-20T09:57:12;21.17;;;9.60;;
20814;SDS011;10568;48.176;16.316;2022-11-20T09:59:43;22.43;;;10.03;;
20814;SDS011;10568;48.176;16.316;2022-11-20T10:02:15;20.00;;;10.20;;
20814;SDS011;10568;48.176;16.316;2022-11-20T10:04:55;19.00;;;9.50;;
20814;SDS011;10568;48.176;16.316;2022-11-20T10:07:39;20.47;;;10.47;;
20814;SDS011;10568;48.176;16.316;2022-11-20T10:10:32;18.73;;;10.27;;
20814;SDS011;10568;48.176;16.316;2022-11-20T10:18:44;21.70;;;10.67;;
20814;SDS011;10568;48.176;16.316;2022-11-20T10:24:07;21.83;;;10.80;;
20814;SDS011;10568;48.176;16.316;2022-11-20T10:26:53;26.37;;;12.03;;
20814;SDS011;10568;48.176;16.316;2022-11-20T10:29:43;21.30;;;11.23;;
20814;SDS011;10568;48.176;16.316;2022-11-20T10:32:18;24.43;;;11.17;;
20814;SDS011;10568;48.176;16.316;2022-11-20T10:37:27;21.10;;;10.70;;
20814;SDS011;10568;48.176;16.316;2022-11-20T10:42:56;19.33;;;10.80;;
20814;SDS011;10568;48.176;16.316;2022-11-20T10:48:20;21.23;;;11.47;;
20814;SDS011;10568;48.176;16.316;2022-11-20T10:53:40;20.53;;;10.40;;
20814;SDS011;10568;48.176;16.316;2022-11-20T10:56:21;18.83;;;9.70;;
20814;SDS011;10568;48.176;16.316;2022-11-20T11:01:27;22.03;;;11.20;;
20814;SDS011;10568;48.176;16.316;2022-11-20T11:03:54;20.50;;;10.67;;
20814;SDS011;10568;48.176;16.316;2022-11-20T11:06:25;22.33;;;10.40;;
20814;SDS011;10568;48.176;16.316;2022-11-20T11:08:55;24.17;;;12.13;;
20814;SDS011;10568;48.176;16.316;2022-11-20T11:11:25;21.47;;;10.47;;
20814;SDS011;10568;48.176;16.316;2022-11-20T11:14:03;19.20;;;10.40;;
20814;SDS011;10568;48.176;16.316;2022-11-20T11:16:33;21.03;;;10.97;;
20814;SDS011;10568;48.176;16.316;2022-11-20T11:19:14;21.10;;;10.93;;
20814;SDS011;10568;48.176;16.316;2022-11-20T11:21:46;19.37;;;9.60;;
20814;SDS011;10568;48.176;16.316;2022-11-20T11:24:23;21.23;;;9.97;;
20814;SDS011;10568;48.176;16.316;2022-11-20T11:27:00;24.50;;;11.87;;
20814;SDS011;10568;48.176;16.316;2022-11-20T11:29:29;21.67;;;10.83;;
20814;SDS011;10568;48.176;16.316;2022-11-20T11:32:03;19.03;;;10.57;;
20814;SDS011;10568;48.176;16.316;2022-11-20T11:34:31;20.67;;;10.57;;
20814;SDS011;10568;48.176;16.316;2022-11-20T11:36:57;23.63;;;11.83;;
20814;SDS011;10568;48.176;16.316;2022-11-20T11:39:24;22.87;;;11.70;;
20814;SDS011;10568;48.176;16.316;2022-11-20T11:41:52;22.47;;;11.07;;
20814;SDS011;10568;48.176;16.316;2022-11-20T11:47:04;25.57;;;12.47;;
20814;SDS011;10568;48.176;16.316;2022-11-20T11:49:35;24.20;;;11.57;;
20814;SDS011;10568;48.176;16.316;2022-11-20T11:57:00;23.73;;;11.60;;
20814;SDS011;10568;48.176;16.316;2022-11-20T11:59:44;20.87;;;11.80;;
20814;SDS011;10568;48.176;16.316;2022-11-20T12:02:25;19.77;;;10.90;;
20814;SDS011;10568;48.176;16.316;2022-11-20T12:05:26;18.47;;;9.93;;
20814;SDS011;10568;48.176;16.316;2022-11-20T12:08:04;24.40;;;11.20;;
20814;SDS011;10568;48.176;16.316;2022-11-20T12:15:58;20.37;;;10.43;;
20814;SDS011;10568;48.176;16.316;2022-11-20T12:18:26;19.33;;;9.73;;
20814;SDS011;10568;48.176;16.316;2022-11-20T12:23:46;24.33;;;11.50;;
20814;SDS011;10568;48.176;16.316;2022-11-20T12:37:45;21.83;;;10.67;;
20814;SDS011;10568;48.176;16.316;2022-11-20T12:43:22;20.83;;;10.87;;
20814;SDS011;10568;48.176;16.316;2022-11-20T12:51:40;24.63;;;11.33;;
20814;SDS011;10568;48.176;16.316;2022-11-20T13:05:37;21.93;;;10.10;;
20814;SDS011;10568;48.176;16.316;2022-11-20T13:08:20;17.37;;;9.17;;
20814;SDS011;10568;48.176;16.316;2022-11-20T13:16:06;21.80;;;10.83;;
20814;SDS011;10568;48.176;16.316;2022-11-20T13:18:52;21.23;;;10.77;;
20814;SDS011;10568;48.176;16.316;2022-11-20T13:21:22;20.47;;;10.23;;
20814;SDS011;10568;48.176;16.316;2022-11-20T13:24:20;25.23;;;10.97;;
20814;SDS011;10568;48.176;16.316;2022-11-20T13:27:02;19.20;;;10.10;;
20814;SDS011;10568;48.176;16.316;2022-11-20T13:29:35;18.40;;;10.33;;
20814;SDS011;10568;48.176;16.316;2022-11-20T13:32:20;17.90;;;9.80;;
20814;SDS011;10568;48.176;16.316;2022-11-20T13:34:54;17.97;;;10.70;;
20814;SDS011;10568;48.176;16.316;2022-11-20T13:37:32;20.73;;;11.07;;
20814;SDS011;10568;48.176;16.316;2022-11-20T13:42:45;19.53;;;9.70;;
20814;SDS011;10568;48.176;16.316;2022-11-20T13:45:23;22.33;;;11.17;;
20814;SDS011;10568;48.176;16.316;2022-11-20T13:47:52;20.07;;;10.30;;
20814;SDS011;10568;48.176;16.316;2022-11-20T13:50:19;19.87;;;10.03;;
20814;SDS011;10568;48.176;16.316;2022-11-20T13:53:08;21.30;;;10.57;;
20814;SDS011;10568;48.176;16.316;2022-11-20T13:55:50;19.27;;;10.17;;
20814;SDS011;10568;48.176;16.316;2022-11-20T13:58:36;21.87;;;11.03;;
20814;SDS011;10568;48.176;16.316;2022-11-20T14:01:17;21.53;;;10.50;;
20814;SDS011;10568;48.176;16.316;2022-11-20T14:03:46;21.27;;;10.83;;
20814;SDS011;10568;48.176;16.316;2022-11-20T14:06:29;22.27;;;10.13;;
20814;SDS011;10568;48.176;16.316;2022-11-20T14:09:04;21.10;;;10.57;;
20814;SDS011;10568;48.176;16.316;2022-11-20T14:11:30;20.83;;;9.50;;
20814;SDS011;10568;48.176;16.316;2022-11-20T14:14:15;23.23;;;11.57;;
20814;SDS011;10568;48.176;16.316;2022-11-20T14:16:45;20.40;;;9.83;;
20814;SDS011;10568;48.176;16.316;2022-11-20T14:22:10;18.43;;;10.57;;
20814;SDS011;10568;48.176;16.316;2022-11-20T14:24:46;25.00;;;11.70;;
20814;SDS011;10568;48.176;16.316;2022-11-20T14:27:17;22.60;;;10.73;;
20814;SDS011;10568;48.176;16.316;2022-11-20T14:29:46;19.57;;;10.77;;
20814;SDS011;10568;48.176;16.316;2022-11-20T14:32:15;19.73;;;11.20;;
20814;SDS011;10568;48.176;16.316;2022-11-20T14:34:47;19.93;;;10.73;;
20814;SDS011;10568;48.176;16.316;2022-11-20T14:37:19;20.70;;;11.23;;
20814;SDS011;10568;48.176;16.316;2022-11-20T14:39:50;24.37;;;12.17;;
20814;SDS011;10568;48.176;16.316;2022-11-20T14:42:20;23.00;;;10.73;;
20814;SDS011;10568;48.176;16.316;2022-11-20T14:44:50;23.00;;;11.10;;
20814;SDS011;10568;48.176;16.316;2022-11-20T14:47:23;23.63;;;10.87;;
20814;SDS011;10568;48.176;16.316;2022-11-20T14:49:52;19.73;;;10.20;;
20814;SDS011;10568;48.176;16.316;2022-11-20T14:52:21;24.10;;;11.47;;
20814;SDS011;10568;48.176;16.316;2022-11-20T14:54:49;20.93;;;11.40;;
20814;SDS011;10568;48.176;16.316;2022-11-20T14:59:49;16.90;;;9.67;;
20814;SDS011;10568;48.176;16.316;2022-11-20T15:02:16;19.83;;;10.53;;
20814;SDS011;10568;48.176;16.316;2022-11-20T15:04:49;17.83;;;10.10;;
20814;SDS011;10568;48.176;16.316;2022-11-20T15:07:26;22.80;;;11.63;;
20814;SDS011;10568;48.176;16.316;2022-11-20T15:09:59;18.53;;;10.30;;
20814;SDS011;10568;48.176;16.316;2022-11-20T15:12:34;20.10;;;10.70;;
20814;SDS011;10568;48.176;16.316;2022-11-20T15:15:03;20.27;;;10.00;;
20814;SDS011;10568;48.176;16.316;2022-11-20T15:17:32;21.60;;;10.07;;
20814;SDS011;10568;48.176;16.316;2022-11-20T15:20:09;18.80;;;10.03;;
20814;SDS011;10568;48.176;16.316;2022-11-20T15:22:40;19.53;;;10.50;;
20814;SDS011;10568;48.176;16.316;2022-11-20T15:25:14;18.17;;;10.07;;
20814;SDS011;10568;48.176;16.316;2022-11-20T15:27:42;16.90;;;9.07;;
20814;SDS011;10568;48.176;16.316;2022-11-20T15:30:13;17.20;;;9.33;;
20814;SDS011;10568;48.176;16.316;2022-11-20T15:32:41;19.17;;;10.20;;
20814;SDS011;10568;48.176;16.316;2022-11-20T15:35:08;19.13;;;9.73;;
20814;SDS011;10568;48.176;16.316;2022-11-20T15:40:50;21.57;;;10.27;;
20814;SDS011;10568;48.176;16.316;2022-11-20T15:43:18;24.17;;;10.90;;
20814;SDS011;10568;48.176;16.316;2022-11-20T15:45:45;18.30;;;8.80;;
20814;SDS011;10568;48.176;16.316;2022-11-20T15:48:34;20.57;;;10.00;;
20814;SDS011;10568;48.176;16.316;2022-11-20T15:53:36;19.43;;;10.27;;
20814;SDS011;10568;48.176;16.316;2022-11-20T15:56:05;18.63;;;10.30;;
20814;SDS011;10568;48.176;16.316;2022-11-20T15:58:34;16.50;;;9.47;;
20814;SDS011;10568;48.176;16.316;2022-11-20T16:01:00;19.73;;;10.73;;
20814;SDS011;10568;48.176;16.316;2022-11-20T16:03:26;21.77;;;10.60;;
20814;SDS011;10568;48.176;16.316;2022-11-20T16:05:52;25.10;;;12.73;;
20814;SDS011;10568;48.176;16.316;2022-11-20T16:08:18;20.83;;;11.80;;
20814;SDS011;10568;48.176;16.316;2022-11-20T16:10:45;23.37;;;11.53;;
20814;SDS011;10568;48.176;16.316;2022-11-20T16:13:11;26.20;;;12.47;;
20814;SDS011;10568;48.176;16.316;2022-11-20T16:15:58;28.73;;;13.17;;
20814;SDS011;10568;48.176;16.316;2022-11-20T16:18:26;33.53;;;15.20;;
20814;SDS011;10568;48.176;16.316;2022-11-20T16:20:53;50.10;;;23.87;;
20814;SDS011;10568;48.176;16.316;2022-11-20T16:23:20;63.33;;;28.20;;
20814;SDS011;10568;48.176;16.316;2022-11-20T16:25:47;50.30;;;24.47;;
20814;SDS011;10568;48.176;16.316;2022-11-20T16:28:16;40.93;;;19.70;;